Time;durP1;ratioP1;P1;durP2;ratioP2;P2;SDS_P1;SDS_P2;PMS_P1;PMS_P2;Temp;Humidity;BMP_temperature;BMP_pressure;BME280_temperature;BME280_humidity;BME280_pressure;Samples;Min_cycle;Max_cycle;Signal;HPM_P1;HPM_P2
2022/11/01 00:01:09;;;;;;;55.22;37.47;;;19.20;90.50;;;;;;4992715;28;20026;-81
2022/11/01 00:03:35;;;;;;;55.22;36.90;;;19.20;90.50;;;;;;5008465;28;20089;-81
2022/11/01 00:06:00;;;;;;;50.70;34.65;;;19.20;90.60;;;;;;4992741;28;20042;-81
2022/11/01 00:08:26;;;;;;;55.58;36.95;;;19.20;90.60;;;;;;4994848;28;20670;-81
2022/11/01 00:10:52;;;;;;;50.53;36.42;;;19.20;90.60;;;;;;4994587;28;20114;-81
2022/11/01 00:13:18;;;;;;;51.83;34.92;;;19.20;90.60;;;;;;4992773;28;20061;-81
2022/11/01 00:15:44;;;;;;;56.33;36.40;;;19.20;90.60;;;;;;4994687;28;20042;-80
2022/11/01 00:18:09;;;;;;;49.58;34.13;;;19.20;90.60;;;;;;4994732;28;20026;-80
2022/11/01 00:20:35;;;;;;;47.75;32.70;;;19.20;90.60;;;;;;4995147;28;20034;-80
2022/11/01 00:23:00;;;;;;;47.65;31.52;;;19.20;90.70;;;;;;4995058;28;20060;-80
2022/11/01 00:25:26;;;;;;;44.08;30.27;;;19.20;90.70;;;;;;4995195;28;20129;-80
2022/11/01 00:27:52;;;;;;;49.53;31.88;;;19.20;90.70;;;;;;4994635;28;20109;-81
2022/11/01 00:30:17;;;;;;;47.42;31.08;;;19.20;90.80;;;;;;4994127;28;20038;-81
2022/11/01 00:32:43;;;;;;;44.22;31.48;;;19.20;90.70;;;;;;4991142;28;20054;-81
2022/11/01 00:35:09;;;;;;;41.13;28.20;;;19.20;90.60;;;;;;4994547;28;20043;-81
2022/11/01 00:37:34;;;;;;;44.47;27.48;;;19.20;90.60;;;;;;4989124;28;20069;-81
2022/11/01 00:40:00;;;;;;;38.50;27.35;;;19.10;90.60;;;;;;4992307;28;20110;-81
2022/11/01 00:42:26;;;;;;;34.05;26.15;;;19.10;90.60;;;;;;4993762;28;20022;-81
2022/11/01 00:44:52;;;;;;;38.33;26.20;;;19.10;90.60;;;;;;4994211;28;20034;-81
2022/11/01 00:47:18;;;;;;;32.80;25.05;;;19.10;90.50;;;;;;4993925;28;20022;-81
2022/11/01 00:49:44;;;;;;;35.75;25.20;;;19.10;90.50;;;;;;4995203;28;20034;-81
2022/11/01 00:52:10;;;;;;;39.13;25.40;;;19.10;90.40;;;;;;4993705;28;20431;-81
2022/11/01 00:54:35;;;;;;;33.65;23.60;;;19.10;90.40;;;;;;4994476;28;20038;-81
2022/11/01 00:57:01;;;;;;;33.65;23.67;;;19.10;90.40;;;;;;4992410;28;20038;-81
2022/11/01 00:59:27;;;;;;;34.58;22.38;;;19.10;90.40;;;;;;4990947;28;20034;-83
2022/11/01 01:01:52;;;;;;;35.35;22.45;;;19.10;90.30;;;;;;4993796;28;20030;-82
2022/11/01 01:04:18;;;;;;;30.58;21.20;;;19.00;90.30;;;;;;4994093;28;20466;-82
2022/11/01 01:06:44;;;;;;;27.77;20.25;;;19.00;90.20;;;;;;4992403;28;20052;-82
2022/11/01 01:09:10;;;;;;;36.40;22.17;;;19.00;90.20;;;;;;4993535;28;20042;-82
2022/11/01 01:11:36;;;;;;;31.52;21.70;;;19.00;90.20;;;;;;4990346;28;20026;-82
2022/11/01 01:14:01;;;;;;;28.05;21.08;;;19.00;90.20;;;;;;4993820;28;20026;-82
2022/11/01 01:16:27;;;;;;;31.67;20.55;;;18.90;90.10;;;;;;4993210;28;20033;-82
2022/11/01 01:18:53;;;;;;;28.15;20.52;;;18.90;90.10;;;;;;4993424;28;20057;-82
2022/11/01 01:21:19;;;;;;;35.22;23.15;;;18.90;90.10;;;;;;4990735;28;20366;-82
2022/11/01 01:23:45;;;;;;;35.50;24.38;;;18.80;90.10;;;;;;4993496;28;20800;-82
2022/11/01 01:26:11;;;;;;;39.22;26.00;;;18.80;90.20;;;;;;5002151;28;20025;-87
2022/11/01 01:28:37;;;;;;;36.45;26.05;;;18.80;90.30;;;;;;4994243;28;20030;-87
2022/11/01 01:31:07;;;;;;;32.20;23.05;;;18.80;90.30;;;;;;5000300;28;20046;-87
2022/11/01 01:33:33;;;;;;;30.35;22.38;;;18.80;90.30;;;;;;4986112;28;20538;-88
2022/11/01 01:36:03;;;;;;;27.45;20.15;;;18.70;90.30;;;;;;4993567;28;20105;-86
2022/11/01 01:38:28;;;;;;;25.80;19.13;;;18.70;90.30;;;;;;4997449;28;20032;-87
2022/11/01 01:41:54;;;;;;;27.73;20.42;;;18.70;90.30;;;;;;4995705;28;20105;-87
2022/11/01 01:43:42;;;;;;;25.85;18.15;;;18.60;90.30;;;;;;4988785;28;20034;-88
2022/11/01 01:46:09;;;;;;;28.52;18.55;;;18.60;90.20;;;;;;4995081;28;20041;-87
2022/11/01 01:48:36;;;;;;;26.90;17.10;;;18.60;90.20;;;;;;4988369;28;20501;-87
2022/11/01 01:51:05;;;;;;;28.33;18.15;;;18.60;90.20;;;;;;4992876;28;20015;-87
2022/11/01 01:53:36;;;;;;;24.77;17.07;;;18.60;90.10;;;;;;4994857;28;20042;-88
2022/11/01 01:56:03;;;;;;;;;;;18.60;90.10;;;;;;4994289;28;20030;-88
2022/11/01 01:58:37;;;;;;;23.85;16.40;;;18.60;90.10;;;;;;4996280;28;19906;-88
2022/11/01 02:01:03;;;;;;;32.67;18.10;;;18.60;90.10;;;;;;4993488;28;20038;-89
2022/11/01 02:03:31;;;;;;;29.88;18.52;;;18.50;90.10;;;;;;4995484;28;20026;-89
2022/11/01 02:06:08;;;;;;;29.20;19.73;;;18.50;90.10;;;;;;4996341;28;20033;-89
2022/11/01 02:08:35;;;;;;;27.77;18.98;;;18.50;90.10;;;;;;4989662;28;20121;-89
2022/11/01 02:11:03;;;;;;;26.65;19.88;;;18.50;90.10;;;;;;4993444;28;20462;-88
2022/11/01 02:13:30;;;;;;;25.38;19.35;;;18.50;90.20;;;;;;4993444;28;20110;-87
2022/11/01 02:16:14;;;;;;;30.05;19.65;;;18.50;90.20;;;;;;4988041;28;20031;-87
2022/11/01 02:18:52;;;;;;;25.90;19.35;;;18.50;90.30;;;;;;5000279;28;20027;-86
2022/11/01 02:21:36;;;;;;;29.00;20.27;;;18.50;90.30;;;;;;4995221;28;20022;-87
2022/11/01 02:24:23;;;;;;;29.55;21.02;;;18.40;90.20;;;;;;4989108;28;20033;-85
2022/11/01 02:26:57;;;;;;;35.42;23.67;;;18.40;90.20;;;;;;4989592;28;20026;-86
2022/11/01 02:29:25;;;;;;;29.05;20.25;;;18.30;90.30;;;;;;4991161;28;20049;-86
2022/11/01 02:32:16;;;;;;;32.70;21.48;;;18.10;90.40;;;;;;4988950;28;20141;-86
2022/11/01 02:34:57;;;;;;;31.02;20.80;;;18.10;90.60;;;;;;4990698;28;20045;-86
2022/11/01 02:37:32;;;;;;;29.05;21.13;;;18.10;90.60;;;;;;4992432;28;20057;-86
2022/11/01 02:40:30;;;;;;;30.55;21.27;;;18.00;90.60;;;;;;4992312;28;20023;-86
2022/11/01 02:43:03;;;;;;;27.45;18.45;;;18.00;90.70;;;;;;4982838;28;20414;-87
2022/11/01 02:45:42;;;;;;;30.58;20.23;;;18.00;90.50;;;;;;4992052;28;20042;-89
2022/11/01 02:48:08;;;;;;;32.60;19.50;;;18.00;90.50;;;;;;4988036;28;20414;-88
2022/11/01 02:50:42;;;;;;;31.30;19.15;;;18.00;90.60;;;;;;4996126;28;20363;-90
2022/11/01 02:53:09;;;;;;;27.67;18.83;;;18.00;90.50;;;;;;4994693;28;20062;-90
2022/11/01 02:55:35;;;;;;;29.13;17.75;;;18.00;90.40;;;;;;4985571;28;20037;-91
2022/11/01 02:58:13;;;;;;;30.75;15.65;;;18.00;90.30;;;;;;4987103;28;20026;-90
2022/11/01 03:00:41;;;;;;;28.30;15.60;;;18.00;90.20;;;;;;4987026;28;20105;-89
2022/11/01 03:03:24;;;;;;;21.63;17.10;;;18.00;90.10;;;;;;4993087;28;20018;-89
2022/11/01 03:06:06;;;;;;;21.52;14.18;;;18.00;89.80;;;;;;4987547;28;20034;-88
2022/11/01 03:08:37;;;;;;;24.80;15.07;;;18.00;90.00;;;;;;5002440;28;20169;-88
2022/11/01 03:11:29;;;;;;;27.50;17.55;;;17.90;89.80;;;;;;4975607;28;20031;-90
2022/11/01 03:14:18;;;;;;;24.92;17.33;;;17.70;89.90;;;;;;4986391;28;20379;-90
2022/11/01 03:17:03;;;;;;;19.55;14.75;;;17.40;90.50;;;;;;4983884;28;20112;-89
2022/11/01 03:19:42;;;;;;;22.52;14.30;;;17.20;90.70;;;;;;4985307;28;20173;-89
2022/11/01 03:22:26;;;;;;;16.23;10.55;;;17.20;90.90;;;;;;5000012;28;20027;-89
2022/11/01 03:25:37;;;;;;;17.90;11.25;;;17.10;90.80;;;;;;4988432;28;20105;-89
2022/11/01 03:27:58;;;;;;;15.90;11.07;;;17.10;90.90;;;;;;4992713;28;20030;-89
2022/11/01 03:30:26;;;;;;;14.68;11.82;;;17.20;90.90;;;;;;4995093;28;20383;-88
2022/11/01 03:32:55;;;;;;;19.05;12.38;;;17.20;90.70;;;;;;4997434;28;20113;-88
2022/11/01 03:35:30;;;;;;;15.45;11.93;;;17.30;90.40;;;;;;4999044;28;20042;-88
2022/11/01 03:38:04;;;;;;;15.68;12.25;;;17.20;90.30;;;;;;4991692;28;20037;-86
2022/11/01 03:40:31;;;;;;;18.48;12.90;;;17.20;90.30;;;;;;4985555;28;20034;-86
2022/11/01 03:43:02;;;;;;;16.00;12.27;;;17.10;90.30;;;;;;5002968;28;20038;-86
2022/11/01 03:45:29;;;;;;;15.82;12.27;;;17.20;90.30;;;;;;4995186;28;20044;-85
2022/11/01 03:47:55;;;;;;;21.25;15.82;;;17.10;90.30;;;;;;4994916;28;20053;-86
2022/11/01 03:50:23;;;;;;;16.88;14.25;;;16.90;90.20;;;;;;4993923;28;20035;-86
2022/11/01 03:52:49;;;;;;;14.25;11.63;;;16.80;90.40;;;;;;5011351;28;20038;-85
2022/11/01 03:55:17;;;;;;;19.73;14.68;;;16.70;90.50;;;;;;4998341;28;20041;-85
2022/11/01 03:57:46;;;;;;;27.20;16.73;;;16.60;90.60;;;;;;5000226;28;20033;-85
2022/11/01 04:00:27;;;;;;;25.58;18.77;;;16.50;90.80;;;;;;4995752;28;20607;-86
2022/11/01 04:02:54;;;;;;;17.00;13.38;;;16.00;91.60;;;;;;4994634;28;20026;-86
2022/11/01 04:05:21;;;;;;;17.52;12.73;;;15.90;91.90;;;;;;4995877;28;20117;-86
2022/11/01 04:07:47;;;;;;;16.90;12.60;;;15.90;91.70;;;;;;4994705;28;20510;-86
2022/11/01 04:10:14;;;;;;;15.90;13.35;;;16.00;91.60;;;;;;4993957;28;20027;-85
2022/11/01 04:12:44;;;;;;;15.13;13.02;;;16.10;91.50;;;;;;4993557;28;20366;-85
2022/11/01 04:21:15;;;;;;;17.40;13.15;;;16.30;91.30;;;;;;4992489;28;20065;-85
2022/11/01 04:23:42;;;;;;;16.42;12.63;;;16.40;91.20;;;;;;4994463;28;20033;-85
2022/11/01 04:26:14;;;;;;;15.82;12.77;;;16.50;91.20;;;;;;4997745;28;20402;-86
2022/11/01 04:28:40;;;;;;;15.77;12.60;;;16.50;91.10;;;;;;4988500;28;20026;-85
2022/11/01 04:31:06;;;;;;;18.60;13.68;;;16.60;91.00;;;;;;4987960;28;20046;-86
2022/11/01 04:33:32;;;;;;;20.38;13.90;;;16.60;90.90;;;;;;4991145;28;20045;-86
2022/11/01 04:36:03;;;;;;;17.73;12.88;;;16.60;91.00;;;;;;5001708;28;20037;-86
2022/11/01 04:38:29;;;;;;;16.73;13.48;;;16.60;91.00;;;;;;4995027;28;20026;-86
2022/11/01 04:40:55;;;;;;;21.38;17.20;;;16.60;90.90;;;;;;4995277;28;20076;-86
2022/11/01 04:43:22;;;;;;;22.48;17.73;;;16.50;90.70;;;;;;4994327;28;20031;-86
2022/11/01 04:45:55;;;;;;;20.23;15.85;;;16.30;91.30;;;;;;4995057;28;20038;-86
2022/11/01 04:48:21;;;;;;;17.90;13.93;;;16.10;91.40;;;;;;5000329;28;20030;-86
2022/11/01 04:50:47;;;;;;;17.10;13.45;;;16.00;91.30;;;;;;4993331;28;20045;-86
2022/11/01 04:53:12;;;;;;;19.63;14.15;;;16.00;91.30;;;;;;4993454;28;20030;-86
2022/11/01 04:55:39;;;;;;;17.27;12.98;;;16.00;91.40;;;;;;4991443;28;20160;-86
2022/11/01 04:58:05;;;;;;;21.35;16.42;;;16.00;91.40;;;;;;4993092;28;20026;-84
2022/11/01 05:00:32;;;;;;;16.30;13.05;;;15.90;91.40;;;;;;4991152;28;20038;-86
2022/11/01 05:03:02;;;;;;;14.88;11.52;;;15.80;91.50;;;;;;4996353;28;20102;-86
2022/11/01 05:05:28;;;;;;;16.23;13.32;;;15.80;91.50;;;;;;5001547;28;20034;-85
2022/11/01 05:08:02;;;;;;;14.45;11.70;;;15.80;91.50;;;;;;4994603;28;20491;-86
2022/11/01 05:10:28;;;;;;;20.27;15.10;;;15.80;91.50;;;;;;4993860;28;20038;-85
2022/11/01 05:12:53;;;;;;;21.88;16.95;;;15.80;91.40;;;;;;4994431;28;20027;-85
2022/11/01 05:15:19;;;;;;;25.80;20.23;;;15.80;91.60;;;;;;4982867;28;20485;-85
2022/11/01 05:17:45;;;;;;;27.88;23.23;;;15.60;91.70;;;;;;4994156;28;20029;-85
2022/11/01 05:20:10;;;;;;;19.05;16.85;;;15.30;92.30;;;;;;4993294;28;20508;-88
2022/11/01 05:22:36;;;;;;;23.73;17.63;;;15.20;92.40;;;;;;4994655;28;20065;-87
2022/11/01 05:25:02;;;;;;;25.85;20.67;;;15.30;92.30;;;;;;4997718;28;20022;-88
2022/11/01 05:27:28;;;;;;;26.67;20.80;;;15.20;92.50;;;;;;4994908;28;20426;-87
2022/11/01 05:29:53;;;;;;;15.95;14.23;;;15.20;92.70;;;;;;4994476;28;20062;-88
2022/11/01 05:32:19;;;;;;;17.02;13.32;;;15.20;92.40;;;;;;4985376;28;20510;-87
2022/11/01 05:34:45;;;;;;;14.38;11.88;;;15.20;92.40;;;;;;4993427;28;20034;-87
2022/11/01 05:37:11;;;;;;;17.08;14.18;;;15.30;92.30;;;;;;4993464;28;20038;-89
2022/11/01 05:39:37;;;;;;;17.15;13.25;;;15.30;92.30;;;;;;4994326;28;20034;-89
2022/11/01 05:42:03;;;;;;;16.20;13.45;;;15.40;92.30;;;;;;4992776;28;20030;-89
2022/11/01 05:44:29;;;;;;;15.82;13.68;;;15.50;92.30;;;;;;4994585;28;20026;-89
2022/11/01 05:46:54;;;;;;;16.60;14.13;;;15.70;92.10;;;;;;4990268;28;20034;-89
2022/11/01 05:49:21;;;;;;;21.13;16.55;;;15.80;91.90;;;;;;4992408;28;20026;-89
2022/11/01 05:51:47;;;;;;;21.58;14.65;;;15.80;91.80;;;;;;4988123;28;20023;-89
2022/11/01 05:54:12;;;;;;;19.38;15.90;;;15.90;91.60;;;;;;4985241;28;20053;-88
2022/11/01 05:56:38;;;;;;;22.73;17.75;;;15.90;91.50;;;;;;4989866;28;20023;-89
2022/11/01 05:59:04;;;;;;;22.48;17.85;;;16.00;91.50;;;;;;4993651;28;20366;-89
2022/11/01 06:01:29;;;;;;;24.63;17.77;;;16.10;91.50;;;;;;4990990;28;20042;-89
2022/11/01 06:04:00;;;;;;;25.55;19.02;;;16.10;91.40;;;;;;4993826;28;20026;-89
2022/11/01 06:06:27;;;;;;;31.05;21.73;;;16.20;91.30;;;;;;4994520;28;20041;-89
2022/11/01 06:08:55;;;;;;;28.85;21.08;;;16.20;91.10;;;;;;4986328;28;20355;-89
2022/11/01 06:11:21;;;;;;;33.13;21.48;;;16.20;91.20;;;;;;4993494;28;20038;-86
2022/11/01 06:13:47;;;;;;;30.52;18.95;;;16.10;91.20;;;;;;4990944;28;20031;-89
2022/11/01 06:16:12;;;;;;;29.55;19.65;;;16.20;91.30;;;;;;4991287;28;20126;-89
2022/11/01 06:18:38;;;;;;;32.90;22.00;;;16.20;91.30;;;;;;4992838;28;20030;-88
2022/11/01 06:21:04;;;;;;;27.60;19.13;;;16.20;91.20;;;;;;4987245;28;20504;-89
2022/11/01 06:23:29;;;;;;;27.05;18.95;;;16.20;91.20;;;;;;4979906;28;20023;-89
2022/11/01 06:26:02;;;;;;;27.88;18.88;;;16.30;91.20;;;;;;4993659;28;20030;-89
2022/11/01 06:28:28;;;;;;;24.88;18.10;;;16.30;91.10;;;;;;4998446;28;20030;-88
2022/11/01 06:30:54;;;;;;;23.83;17.55;;;16.30;91.00;;;;;;5012942;28;20398;-90
2022/11/01 06:33:19;;;;;;;24.33;17.40;;;16.30;91.00;;;;;;4981164;28;20061;-90
2022/11/01 06:35:45;;;;;;;22.15;16.92;;;16.30;91.00;;;;;;4993343;28;20045;-82
2022/11/01 06:38:11;;;;;;;22.88;16.63;;;16.40;91.60;;;;;;4979671;28;20030;-83
2022/11/01 06:40:37;;;;;;;17.90;14.18;;;16.50;91.60;;;;;;4987599;28;20059;-85
2022/11/01 06:43:04;;;;;;;19.77;14.93;;;16.60;91.10;;;;;;4976077;28;20057;-87
2022/11/01 06:45:31;;;;;;;19.77;17.08;;;16.60;91.10;;;;;;4993236;28;20038;-84
2022/11/01 06:48:09;;;;;;;20.77;16.50;;;16.60;90.90;;;;;;4991333;28;20029;-81
2022/11/01 06:50:35;;;;;;;22.27;16.80;;;16.60;90.80;;;;;;4988356;28;20038;-82
2022/11/01 06:53:01;;;;;;;23.13;17.40;;;16.70;90.80;;;;;;4983005;28;20039;-81
2022/11/01 06:55:27;;;;;;;24.95;18.50;;;16.70;90.70;;;;;;4977810;28;20038;-82
2022/11/01 06:57:57;;;;;;;23.88;16.98;;;16.70;90.70;;;;;;4983117;28;20105;-83
2022/11/01 07:00:25;;;;;;;23.38;19.15;;;16.70;90.70;;;;;;4992553;28;20041;-80
2022/11/01 07:03:05;;;;;;;21.67;17.33;;;16.80;91.00;;;;;;4988042;28;20033;-80
2022/11/01 07:05:33;;;;;;;24.98;17.48;;;16.70;90.60;;;;;;4973736;28;20098;-81
2022/11/01 07:08:00;;;;;;;26.50;17.77;;;16.60;90.60;;;;;;4979306;28;20037;-81
2022/11/01 07:10:27;;;;;;;22.20;17.92;;;16.60;90.80;;;;;;4991798;28;20545;-78
2022/11/01 07:13:00;;;;;;;22.40;17.27;;;16.60;91.00;;;;;;4992282;28;20034;-78
2022/11/01 07:15:26;;;;;;;26.27;19.60;;;16.60;91.00;;;;;;4992802;28;20041;-78
2022/11/01 07:17:56;;;;;;;26.27;20.15;;;16.60;91.00;;;;;;4992239;28;20027;-78
2022/11/01 07:20:23;;;;;;;24.48;19.17;;;16.70;91.10;;;;;;4995867;28;20026;-78
2022/11/01 07:22:57;;;;;;;26.13;19.52;;;16.70;91.10;;;;;;4996049;28;20074;-78
2022/11/01 07:25:23;;;;;;;40.53;21.15;;;16.80;91.10;;;;;;4981844;28;20057;-78
2022/11/01 07:27:48;;;;;;;24.92;18.98;;;16.70;91.10;;;;;;4996770;28;20482;-77
2022/11/01 07:30:14;;;;;;;29.20;20.83;;;16.60;91.10;;;;;;4994762;28;20034;-78
2022/11/01 07:32:40;;;;;;;28.58;19.75;;;16.60;91.40;;;;;;4981749;28;20058;-79
2022/11/01 07:35:06;;;;;;;34.28;23.75;;;16.60;91.60;;;;;;4997734;28;20085;-76
2022/11/01 07:37:31;;;;;;;30.45;20.67;;;16.60;91.70;;;;;;4994379;28;20031;-79
2022/11/01 07:39:57;;;;;;;38.45;25.65;;;16.60;91.80;;;;;;4996181;28;20043;-79
2022/11/01 07:42:23;;;;;;;28.80;21.88;;;16.60;91.80;;;;;;4996289;28;20050;-80
2022/11/01 07:44:48;;;;;;;36.83;25.65;;;16.60;91.70;;;;;;4993007;28;20530;-80
2022/11/01 07:47:14;;;;;;;32.08;23.20;;;16.60;92.00;;;;;;4985370;28;20125;-80
2022/11/01 07:49:40;;;;;;;33.67;21.80;;;16.60;91.80;;;;;;4996514;28;20057;-80
2022/11/01 07:52:05;;;;;;;36.80;22.38;;;16.50;91.80;;;;;;4996404;28;20100;-80
2022/11/01 07:54:31;;;;;;;32.28;21.95;;;16.50;92.00;;;;;;4995871;28;20030;-80
2022/11/01 07:56:57;;;;;;;32.95;23.38;;;16.50;92.10;;;;;;4994812;28;20038;-80
2022/11/01 07:59:22;;;;;;;34.75;22.80;;;16.60;92.10;;;;;;4994627;28;20102;-80
2022/11/01 08:01:48;;;;;;;39.05;23.58;;;16.60;92.10;;;;;;4991739;28;20471;-80
2022/11/01 08:04:14;;;;;;;35.42;23.30;;;16.70;92.10;;;;;;4992341;28;20110;-79
2022/11/01 08:06:39;;;;;;;36.58;24.17;;;16.80;92.00;;;;;;4993302;28;20030;-83
2022/11/01 08:09:05;;;;;;;49.95;27.08;;;16.80;91.90;;;;;;4982521;28;20022;-81
2022/11/01 08:11:31;;;;;;;45.67;26.13;;;16.80;91.80;;;;;;4987874;28;20031;-80
2022/11/01 08:13:57;;;;;;;41.25;24.90;;;16.80;92.00;;;;;;4978366;28;20042;-80
2022/11/01 08:16:23;;;;;;;40.03;24.98;;;16.80;92.00;;;;;;4976359;28;20363;-82
2022/11/01 08:18:50;;;;;;;49.65;27.70;;;16.80;92.20;;;;;;4975558;28;20031;-79
2022/11/01 08:21:19;;;;;;;45.85;27.40;;;16.80;92.30;;;;;;4976952;28;20030;-85
2022/11/01 08:23:45;;;;;;;46.22;26.73;;;16.80;92.40;;;;;;4975977;28;20015;-87
2022/11/01 08:26:11;;;;;;;52.25;28.05;;;16.80;92.50;;;;;;4976185;28;20085;-84
2022/11/01 08:28:37;;;;;;;50.58;27.42;;;16.90;92.60;;;;;;4974540;28;20030;-85
2022/11/01 08:31:07;;;;;;;54.33;27.83;;;16.90;92.50;;;;;;4986813;28;20377;-88
2022/11/01 08:33:33;;;;;;;47.90;26.35;;;16.90;92.60;;;;;;4993675;28;20122;-82
2022/11/01 08:35:59;;;;;;;52.60;27.77;;;17.00;92.70;;;;;;4993938;28;20042;-85
2022/11/01 08:38:24;;;;;;;53.97;29.42;;;17.00;92.70;;;;;;4990525;28;20836;-85
2022/11/01 08:40:50;;;;;;;63.75;32.08;;;17.10;92.70;;;;;;4994928;28;20054;-85
2022/11/01 08:43:17;;;;;;;54.92;29.85;;;17.10;92.60;;;;;;4982029;28;20054;-84
2022/11/01 08:45:43;;;;;;;50.35;28.83;;;17.20;92.60;;;;;;4994573;28;20026;-85
2022/11/01 08:48:09;;;;;;;55.63;29.80;;;17.20;92.60;;;;;;4995205;28;20038;-85
2022/11/01 08:50:35;;;;;;;46.72;28.23;;;17.20;92.70;;;;;;4994400;28;20034;-86
2022/11/01 08:53:19;;;;;;;42.03;25.58;;;17.30;92.70;;;;;;4995149;28;20040;-85
2022/11/01 08:55:46;;;;;;;48.28;27.70;;;17.20;92.70;;;;;;4994470;28;20030;-85
2022/11/01 08:58:11;;;;;;;45.20;26.77;;;17.20;92.80;;;;;;4984042;28;20587;-85
2022/11/01 09:00:37;;;;;;;41.78;27.30;;;17.30;92.90;;;;;;4970396;28;20022;-83
2022/11/01 09:03:03;;;;;;;49.97;29.27;;;17.30;93.10;;;;;;4984207;28;20382;-82
2022/11/01 09:05:30;;;;;;;46.63;27.60;;;17.40;93.10;;;;;;4986597;28;20052;-83
2022/11/01 09:07:58;;;;;;;51.53;29.80;;;17.50;93.10;;;;;;4984481;28;20072;-83
2022/11/01 09:10:24;;;;;;;48.40;28.35;;;17.60;93.00;;;;;;4992837;28;20105;-84
2022/11/01 09:12:50;;;;;;;59.80;31.17;;;17.60;93.00;;;;;;4985807;28;20410;-83
2022/11/01 09:15:15;;;;;;;58.67;33.00;;;17.60;93.00;;;;;;4994339;28;20037;-82
2022/11/01 09:17:41;;;;;;;56.28;31.27;;;17.70;93.10;;;;;;4993906;28;20085;-79
2022/11/01 09:20:14;;;;;;;57.45;31.05;;;17.70;93.20;;;;;;4986744;28;20027;-79
2022/11/01 09:22:40;;;;;;;59.38;31.45;;;17.80;93.20;;;;;;4984225;28;20126;-81
2022/11/01 09:25:06;;;;;;;68.38;34.17;;;17.90;93.00;;;;;;4983940;28;20102;-86
2022/11/01 09:27:32;;;;;;;64.00;33.45;;;18.00;93.00;;;;;;4983036;28;20042;-80
2022/11/01 09:29:58;;;;;;;62.97;33.42;;;18.10;92.90;;;;;;4991992;28;20069;-85
2022/11/01 09:32:28;;;;;;;71.50;37.22;;;18.10;92.90;;;;;;4991650;28;20571;-79
2022/11/01 09:34:53;;;;;;;67.05;34.80;;;18.10;92.90;;;;;;4989071;28;20023;-78
2022/11/01 09:37:19;;;;;;;56.63;31.40;;;18.10;92.90;;;;;;4984925;28;20733;-79
2022/11/01 09:39:45;;;;;;;65.13;34.00;;;18.10;92.90;;;;;;4984543;28;20018;-79
2022/11/01 09:42:22;;;;;;;65.15;33.80;;;18.10;92.90;;;;;;4983736;28;20102;-78
2022/11/01 09:44:50;;;;;;;68.68;32.25;;;18.10;92.90;;;;;;4985661;28;20023;-78
2022/11/01 09:47:20;;;;;;;61.15;34.20;;;18.20;93.00;;;;;;4987044;28;20035;-83
2022/11/01 09:49:49;;;;;;;63.42;35.45;;;18.20;92.90;;;;;;4984697;28;20066;-83
2022/11/01 09:52:20;;;;;;;52.83;31.07;;;18.30;92.90;;;;;;4989513;28;20137;-84
2022/11/01 09:54:46;;;;;;;57.97;34.25;;;18.40;93.00;;;;;;4987449;28;20038;-79
2022/11/01 09:57:48;;;;;;;64.70;37.25;;;18.60;93.10;;;;;;4983851;28;21682;-80
2022/11/01 10:00:19;;;;;;;66.93;39.47;;;18.70;93.00;;;;;;4962929;28;20053;-80
2022/11/01 10:03:03;;;;;;;66.05;37.22;;;18.80;92.90;;;;;;4987559;28;20036;-80
2022/11/01 10:05:54;;;;;;;68.72;38.42;;;18.80;93.00;;;;;;4991103;28;20038;-79
2022/11/01 10:08:26;;;;;;;70.88;39.47;;;18.80;92.90;;;;;;4991070;28;20545;-81
2022/11/01 10:11:01;;;;;;;62.85;37.58;;;18.90;92.80;;;;;;4988278;28;20038;-83
2022/11/01 10:13:37;;;;;;;69.20;40.00;;;19.00;92.70;;;;;;4990814;28;20034;-83
2022/11/01 10:16:33;;;;;;;72.13;45.42;;;19.00;92.60;;;;;;4993914;28;20030;-84
2022/11/01 10:19:20;;;;;;;60.95;38.50;;;18.80;92.80;;;;;;4990628;28;20457;-80
2022/11/01 10:21:51;;;;;;;56.65;37.65;;;18.80;93.10;;;;;;4986372;28;20029;-80
2022/11/01 10:24:29;;;;;;;55.60;36.70;;;18.60;93.30;;;;;;4993408;28;20077;-78
2022/11/01 10:27:30;;;;;;;62.50;36.83;;;18.60;93.40;;;;;;4982483;28;20039;-80
2022/11/01 10:30:01;;;;;;;51.30;34.80;;;18.60;93.50;;;;;;4992397;28;20185;-80
2022/11/01 10:32:52;;;;;;;66.75;41.63;;;18.60;93.30;;;;;;4993283;28;20495;-81
2022/11/01 10:35:24;;;;;;;56.90;36.88;;;18.80;93.30;;;;;;4992026;28;20175;-80
2022/11/01 10:38:00;;;;;;;58.83;37.75;;;18.80;93.20;;;;;;4981528;28;20030;-85
2022/11/01 10:40:40;;;;;;;61.95;37.47;;;18.90;93.20;;;;;;4990017;28;20030;-86
2022/11/01 10:43:15;;;;;;;60.30;39.22;;;19.10;93.10;;;;;;4987566;28;20026;-85
2022/11/01 10:45:44;;;;;;;60.85;39.65;;;19.20;92.90;;;;;;4982327;28;20038;-83
2022/11/01 10:48:31;;;;;;;59.90;40.40;;;19.30;92.70;;;;;;4991185;28;20027;-87
2022/11/01 10:51:02;;;;;;;63.08;40.33;;;19.40;92.50;;;;;;4979953;28;20383;-87
2022/11/01 10:53:32;;;;;;;60.05;38.67;;;19.50;92.30;;;;;;4979436;28;20097;-92
2022/11/01 10:56:02;;;;;;;60.15;39.55;;;19.60;92.20;;;;;;4976663;28;20378;-86
2022/11/01 10:58:37;;;;;;;59.85;39.25;;;19.60;92.10;;;;;;4987705;28;20505;-85
2022/11/01 11:01:08;;;;;;;64.20;41.60;;;19.60;92.10;;;;;;4981915;28;20095;-85
2022/11/01 11:03:36;;;;;;;62.13;39.67;;;19.70;92.10;;;;;;4986549;28;20030;-87
2022/11/01 11:06:08;;;;;;;68.70;40.50;;;19.70;92.00;;;;;;4989643;28;20018;-91
2022/11/01 11:08:37;;;;;;;65.10;40.80;;;19.70;92.00;;;;;;4992561;28;20109;-91
2022/11/01 11:11:08;;;;;;;64.40;39.85;;;19.70;92.00;;;;;;4998203;28;20026;-90
2022/11/01 11:13:34;;;;;;;69.95;42.08;;;19.80;91.90;;;;;;4983102;28;20031;-91
2022/11/01 11:16:05;;;;;;;70.15;42.03;;;19.80;91.80;;;;;;4993518;28;20030;-91
2022/11/01 11:18:32;;;;;;;91.35;53.33;;;19.80;91.80;;;;;;4993750;28;20343;-91
2022/11/01 11:21:10;;;;;;;69.60;43.08;;;19.70;91.70;;;;;;5004606;28;20350;-91
2022/11/01 11:23:45;;;;;;;70.00;43.22;;;19.70;92.00;;;;;;4999988;28;20019;-90
2022/11/01 11:26:16;;;;;;;73.05;42.88;;;19.80;92.00;;;;;;5004988;28;20028;-91
2022/11/01 11:28:46;;;;;;;70.90;42.70;;;20.00;91.80;;;;;;5012389;28;20034;-91
2022/11/01 11:31:12;;;;;;;64.55;42.03;;;20.20;91.70;;;;;;4993130;28;20038;-91
2022/11/01 11:33:46;;;;;;;72.95;43.60;;;20.20;91.50;;;;;;4993883;28;20026;-91
2022/11/01 11:36:12;;;;;;;68.72;44.90;;;20.30;91.40;;;;;;4993324;28;20081;-90
2022/11/01 11:38:46;;;;;;;65.30;42.33;;;20.40;91.30;;;;;;4993466;28;20026;-92
2022/11/01 11:41:28;;;;;;;70.25;44.40;;;20.40;91.10;;;;;;4987058;28;20034;-91
2022/11/01 11:43:54;;;;;;;64.18;41.38;;;20.40;91.10;;;;;;4993638;28;20038;-91
2022/11/01 11:46:22;;;;;;;74.22;46.80;;;20.40;91.00;;;;;;4993402;28;20026;-90
2022/11/01 11:49:03;;;;;;;67.45;44.13;;;20.40;91.00;;;;;;4992138;28;20168;-91
2022/11/01 11:51:36;;;;;;;63.90;42.15;;;20.30;91.00;;;;;;4994122;28;20108;-84
2022/11/01 11:54:22;;;;;;;89.07;57.47;;;20.20;91.20;;;;;;4991176;28;20031;-84
2022/11/01 11:57:06;;;;;;;71.97;45.63;;;20.00;91.30;;;;;;4991691;28;20374;-85
2022/11/01 11:59:33;;;;;;;95.93;57.88;;;20.00;91.40;;;;;;4987575;28;20089;-84
2022/11/01 12:02:02;;;;;;;71.57;45.35;;;19.90;91.60;;;;;;4991745;28;20110;-85
2022/11/01 12:04:39;;;;;;;67.88;44.53;;;19.80;91.60;;;;;;4995556;28;20030;-84
2022/11/01 12:07:10;;;;;;;65.38;43.08;;;19.90;91.60;;;;;;4994178;28;20084;-84
2022/11/01 12:09:46;;;;;;;;;;;19.90;91.60;;;;;;4994254;28;20038;-84
2022/11/01 12:12:39;;;;;;;60.08;40.58;;;19.90;91.60;;;;;;4994465;28;19906;-84
2022/11/01 12:15:26;;;;;;;68.35;43.00;;;19.80;91.50;;;;;;4975568;28;20059;-84
2022/11/01 12:17:52;;;;;;;70.20;44.17;;;20.10;91.50;;;;;;4984744;28;20073;-84
2022/11/01 12:20:20;;;;;;;69.45;43.53;;;20.10;91.50;;;;;;4995678;28;20089;-84
2022/11/01 12:23:16;;;;;;;67.13;43.50;;;20.20;91.40;;;;;;4994869;28;20014;-84
2022/11/01 12:25:44;;;;;;;67.63;43.10;;;20.20;91.40;;;;;;4984625;28;20039;-84
2022/11/01 12:28:21;;;;;;;65.47;43.58;;;20.20;91.30;;;;;;4994329;28;20022;-85
2022/11/01 12:30:50;;;;;;;72.45;45.80;;;20.20;91.30;;;;;;4995994;28;20046;-84
2022/11/01 12:33:53;;;;;;;66.23;43.60;;;20.00;91.40;;;;;;4994013;28;20030;-84
2022/11/01 12:36:42;;;;;;;66.20;43.08;;;20.00;91.40;;;;;;4973011;28;20137;-84
2022/11/01 12:39:33;;;;;;;67.97;43.38;;;20.00;91.50;;;;;;4992840;28;20621;-84
2022/11/01 12:42:03;;;;;;;63.17;41.38;;;20.00;91.60;;;;;;4994531;28;20487;-83
2022/11/01 12:44:50;;;;;;;63.60;43.08;;;20.00;91.60;;;;;;4992906;28;20034;-84
2022/11/01 12:47:37;;;;;;;63.50;42.00;;;20.00;91.60;;;;;;4994546;28;20029;-85
2022/11/01 12:50:06;;;;;;;67.63;44.75;;;20.00;91.50;;;;;;4995164;28;20464;-85